createdAt,value
2022-08-23T00:03:05.397Z,11.63
2022-08-23T00:08:08.934Z,7.78
2022-08-23T00:13:13.811Z,12.27
2022-08-23T00:18:18.379Z,13.00
2022-08-23T00:23:21.817Z,13.35
2022-08-23T00:28:26.651Z,18.30
2022-08-23T00:33:30.340Z,17.60
2022-08-23T00:38:35.233Z,18.75
2022-08-23T00:44:00.463Z,14.43
2022-08-23T00:49:07.404Z,11.27
2022-08-23T00:54:12.521Z,12.30
2022-08-23T00:59:17.439Z,14.60
2022-08-23T01:04:21.551Z,11.32
2022-08-23T01:09:25.170Z,18.17
2022-08-23T01:14:35.689Z,10.70
2022-08-23T01:19:42.304Z,10.23
2022-08-23T01:25:08.103Z,13.88
2022-08-23T01:30:17.460Z,10.00
2022-08-23T01:35:28.304Z,8.05
2022-08-23T01:40:34.086Z,8.57
2022-08-23T01:45:39.727Z,12.65
2022-08-23T01:50:45.591Z,13.93
2022-08-23T01:55:51.016Z,13.00
2022-08-23T02:00:57.658Z,11.52
2022-08-23T02:06:01.746Z,14.88
2022-08-23T02:11:11.575Z,20.80
2022-08-23T02:16:24.686Z,14.90
2022-08-23T02:21:31.479Z,11.80
2022-08-23T02:26:38.634Z,26.25
2022-08-23T02:31:42.645Z,18.00
2022-08-23T02:36:47.870Z,20.35
2022-08-23T02:41:53.656Z,17.77
2022-08-23T02:46:57.783Z,20.83
2022-08-23T02:52:01.566Z,25.50
2022-08-23T02:57:07.275Z,18.83
2022-08-23T03:02:12.345Z,13.27
2022-08-23T03:07:19.405Z,27.35
2022-08-23T03:12:24.956Z,31.95
2022-08-23T03:17:30.935Z,27.58
2022-08-23T03:22:34.455Z,31.52
2022-08-23T03:27:45.073Z,31.33
2022-08-23T03:32:50.374Z,35.97
2022-08-23T03:37:55.360Z,45.75
2022-08-23T03:43:01.910Z,34.72
2022-08-23T03:48:06.970Z,48.42
2022-08-23T03:53:12.184Z,42.55
2022-08-23T03:58:21.883Z,50.85
2022-08-23T04:03:25.778Z,43.53
2022-08-23T04:08:40.304Z,38.58
2022-08-23T04:13:45.566Z,65.05
2022-08-23T04:18:49.705Z,61.67
2022-08-23T04:23:55.819Z,66.25
2022-08-23T04:29:00.964Z,55.45
2022-08-23T04:34:05.090Z,75.63
2022-08-23T04:39:09.545Z,52.45
2022-08-23T04:44:16.878Z,72.82
2022-08-23T04:49:25.192Z,73.75
2022-08-23T04:54:29.499Z,80.93
2022-08-23T04:59:40.070Z,41.53
2022-08-23T05:04:43.502Z,57.90
2022-08-23T05:09:47.222Z,42.85
2022-08-23T05:14:52.094Z,67.32
2022-08-23T05:19:55.689Z,50.40
2022-08-23T05:25:00.137Z,53.10
2022-08-23T05:30:07.442Z,40.85
2022-08-23T05:35:11.724Z,42.28
2022-08-23T05:40:19.246Z,36.50
2022-08-23T05:45:37.385Z,40.35
2022-08-23T05:50:43.484Z,39.55
2022-08-23T05:55:47.411Z,35.97
2022-08-23T06:01:02.537Z,42.67
2022-08-23T06:06:07.196Z,43.03
2022-08-23T06:11:12.766Z,37.15
2022-08-23T06:16:24.008Z,26.27
2022-08-23T06:21:28.262Z,30.25
2022-08-23T06:26:35.183Z,26.02
2022-08-23T06:31:47.307Z,31.45
2022-08-23T06:36:56.165Z,31.52
2022-08-23T06:42:38.441Z,34.20
2022-08-23T06:47:45.503Z,25.08
2022-08-23T06:52:49.676Z,27.38
2022-08-23T06:58:13.272Z,21.40
2022-08-23T07:03:37.239Z,23.77
2022-08-23T07:09:00.339Z,26.67
2022-08-23T07:14:10.669Z,26.92
2022-08-23T07:19:16.272Z,24.38
2022-08-23T07:24:20.967Z,25.55
2022-08-23T07:29:25.517Z,25.13
2022-08-23T07:34:30.602Z,24.33
2022-08-23T07:39:34.368Z,22.02
2022-08-23T07:44:38.527Z,23.17
2022-08-23T07:49:43.608Z,22.48
2022-08-23T07:54:49.632Z,25.35
2022-08-23T08:00:09.817Z,21.55
2022-08-23T08:05:21.931Z,25.63
2022-08-23T08:10:27.205Z,19.00
2022-08-23T08:15:31.455Z,19.85
2022-08-23T08:20:47.300Z,23.52
2022-08-23T08:26:11.657Z,25.77
2022-08-23T08:31:23.992Z,27.63
2022-08-23T08:36:38.113Z,23.05
2022-08-23T08:42:04.765Z,19.67
2022-08-23T08:47:15.543Z,18.80
2022-08-23T08:52:26.196Z,22.27
2022-08-23T08:57:41.820Z,10.45
2022-08-23T09:02:47.226Z,19.35
2022-08-23T09:08:06.213Z,19.38
2022-08-23T09:13:34.509Z,15.10
2022-08-23T09:18:38.536Z,38.67
2022-08-23T09:23:46.314Z,18.90
2022-08-23T09:29:02.529Z,19.90
2022-08-23T09:34:17.398Z,24.27
2022-08-23T09:39:38.561Z,15.40
2022-08-23T09:44:46.477Z,25.77
2022-08-23T09:49:52.142Z,16.23
2022-08-23T09:55:03.037Z,15.82
2022-08-23T10:00:25.328Z,12.82
2022-08-23T10:05:37.120Z,20.42
2022-08-23T10:10:50.902Z,14.98
2022-08-23T10:16:06.791Z,12.57
2022-08-23T10:21:24.279Z,14.32
2022-08-23T10:26:35.254Z,10.43
2022-08-23T10:31:48.005Z,13.98
2022-08-23T10:37:06.998Z,15.55
2022-08-23T10:42:21.276Z,15.23
2022-08-23T10:47:37.343Z,14.73
2022-08-23T10:52:54.256Z,11.57
2022-08-23T10:58:00.536Z,9.98
2022-08-23T11:03:14.947Z,12.05
2022-08-23T11:08:34.351Z,11.10
2022-08-23T11:13:54.319Z,14.98
2022-08-23T11:18:58.676Z,19.13
2022-08-23T11:24:34.690Z,17.40
2022-08-23T11:29:43.807Z,20.55
2022-08-23T11:35:27.538Z,12.38
2022-08-23T11:40:58.079Z,11.65
2022-08-23T11:46:31.206Z,12.50
2022-08-23T11:51:50.895Z,19.40
2022-08-23T11:57:06.059Z,10.05
2022-08-23T12:02:37.106Z,12.82
2022-08-23T12:07:53.991Z,15.70
2022-08-23T12:13:33.887Z,9.32
2022-08-23T12:18:43.735Z,15.40
2022-08-23T12:23:55.407Z,14.73
2022-08-23T12:29:07.441Z,15.23
2022-08-23T12:34:22.528Z,15.68
2022-08-23T12:39:31.434Z,16.02
2022-08-23T12:44:35.413Z,20.58
2022-08-23T12:49:40.312Z,15.80
2022-08-23T12:54:46.488Z,23.13
2022-08-23T13:00:16.763Z,23.95
2022-08-23T13:05:39.721Z,21.05
2022-08-23T13:10:45.252Z,24.30
2022-08-23T13:15:53.327Z,32.80
2022-08-23T13:21:28.605Z,31.38
2022-08-23T13:26:42.093Z,27.75
2022-08-23T13:31:55.104Z,19.83
2022-08-23T13:37:03.712Z,26.60
2022-08-23T13:42:07.273Z,19.83
2022-08-23T13:47:22.625Z,25.75
2022-08-23T13:52:50.968Z,25.63
2022-08-23T13:57:51.861Z,22.67
2022-08-23T14:02:55.312Z,31.10
2022-08-23T14:08:00.213Z,22.38
2022-08-23T14:13:04.147Z,21.88
2022-08-23T14:18:07.811Z,23.23
2022-08-23T14:23:12.820Z,22.90
2022-08-23T14:28:16.396Z,14.15
2022-08-23T14:33:21.795Z,22.17
2022-08-23T14:38:26.651Z,23.35
2022-08-23T14:43:31.542Z,21.60
2022-08-23T14:48:36.958Z,16.40
2022-08-23T14:53:41.869Z,19.55
2022-08-23T14:58:46.034Z,24.77
2022-08-23T15:03:50.097Z,20.10
2022-08-23T15:08:55.150Z,20.55
2022-08-23T15:14:00.547Z,13.73
2022-08-23T15:19:06.761Z,17.85
2022-08-23T15:24:11.653Z,22.50
2022-08-23T15:29:19.057Z,26.13
2022-08-23T15:34:24.204Z,27.42
2022-08-23T15:39:29.637Z,22.33
2022-08-23T15:44:33.594Z,20.98
2022-08-23T15:49:37.222Z,19.55
2022-08-23T15:54:42.381Z,24.88
2022-08-23T15:59:46.528Z,27.75
2022-08-23T16:04:50.224Z,31.48
2022-08-23T16:09:55.410Z,24.20
2022-08-23T16:14:58.924Z,33.03
2022-08-23T16:20:02.372Z,28.23
2022-08-23T16:25:09.006Z,30.48
2022-08-23T16:30:15.442Z,28.65
2022-08-23T16:35:19.208Z,27.77
2022-08-23T16:40:24.245Z,29.55
2022-08-23T16:45:27.824Z,32.22
2022-08-23T16:50:33.020Z,30.15
2022-08-23T16:55:39.902Z,28.73
2022-08-23T17:00:43.665Z,30.55
2022-08-23T17:05:47.133Z,29.42
2022-08-23T17:10:52.031Z,30.40
2022-08-23T17:15:55.436Z,25.73
2022-08-23T17:20:59.026Z,39.38
2022-08-23T17:26:03.962Z,35.35
2022-08-23T17:31:07.629Z,31.75
2022-08-23T17:36:28.580Z,34.63
2022-08-23T17:41:35.361Z,38.35
2022-08-23T17:46:40.734Z,33.90
2022-08-23T17:51:44.820Z,32.22
2022-08-23T17:56:50.148Z,41.03
2022-08-23T18:01:54.526Z,29.77
2022-08-23T18:06:59.418Z,26.30
2022-08-23T18:12:04.969Z,33.13
2022-08-23T18:17:08.410Z,34.70
2022-08-23T18:22:11.871Z,34.13
2022-08-23T18:27:34.265Z,42.03
2022-08-23T18:32:37.753Z,27.70
2022-08-23T18:37:42.044Z,35.30
2022-08-23T18:42:46.911Z,43.78
2022-08-23T18:47:50.488Z,28.70
2022-08-23T18:52:53.884Z,27.42
2022-08-23T18:57:58.826Z,27.50
2022-08-23T19:03:03.985Z,29.33
2022-08-23T19:08:07.777Z,24.02
2022-08-23T19:13:13.298Z,29.73
2022-08-23T19:18:17.138Z,23.40
2022-08-23T19:23:21.765Z,40.30
2022-08-23T19:28:26.994Z,28.55
2022-08-23T19:33:30.537Z,27.80
2022-08-23T19:38:34.204Z,39.45
2022-08-23T19:43:41.073Z,33.22
2022-08-23T19:48:46.432Z,38.80
2022-08-23T19:54:03.665Z,38.40
2022-08-23T19:59:13.854Z,35.38
2022-08-23T20:04:18.205Z,27.90
2022-08-23T20:09:23.589Z,28.10
2022-08-23T20:14:31.391Z,44.70
2022-08-23T20:19:35.279Z,33.15
2022-08-23T20:24:51.704Z,37.45
2022-08-23T20:29:58.993Z,36.35
2022-08-23T20:35:03.800Z,30.55
2022-08-23T20:40:11.596Z,27.38
2022-08-23T20:45:16.508Z,29.20
2022-08-23T20:50:20.091Z,23.10
2022-08-23T20:55:24.211Z,28.65
2022-08-23T21:00:29.201Z,27.10
2022-08-23T21:05:32.767Z,23.70
2022-08-23T21:10:36.741Z,44.75
2022-08-23T21:15:43.996Z,43.55
2022-08-23T21:20:47.479Z,38.28
2022-08-23T21:25:54.987Z,36.70
2022-08-23T21:31:07.715Z,51.28
2022-08-23T21:36:11.913Z,64.07
2022-08-23T21:41:32.157Z,50.78
2022-08-23T21:46:37.310Z,83.10
2022-08-23T21:51:41.620Z,72.07
2022-08-23T21:56:45.912Z,84.05
2022-08-23T22:01:51.466Z,62.05
2022-08-23T22:06:55.786Z,40.55
2022-08-23T22:12:00.664Z,43.72
2022-08-23T22:17:06.077Z,51.35
2022-08-23T22:22:09.545Z,35.90
2022-08-23T22:27:13.390Z,47.80
2022-08-23T22:32:18.297Z,57.30
2022-08-23T22:37:21.812Z,44.42
2022-08-23T22:42:25.630Z,39.72
2022-08-23T22:47:31.199Z,41.13
2022-08-23T22:52:34.762Z,34.08
2022-08-23T22:57:38.237Z,38.42
2022-08-23T23:02:43.138Z,34.40
2022-08-23T23:08:04.430Z,37.15
2022-08-23T23:13:08.370Z,33.25
2022-08-23T23:18:13.249Z,27.50
2022-08-23T23:23:20.050Z,32.17
2022-08-23T23:28:23.816Z,33.90
2022-08-23T23:33:28.650Z,34.10
2022-08-23T23:38:32.062Z,21.23
2022-08-23T23:43:35.570Z,31.38
2022-08-23T23:48:40.711Z,25.48
2022-08-23T23:53:45.175Z,25.98
2022-08-23T23:58:49.346Z,35.42
